createdAt,value
2019-01-25T00:00:43.069Z,11.40
2019-01-25T00:03:12.131Z,11.40
2019-01-25T00:05:41.800Z,11.50
2019-01-25T00:08:11.261Z,11.40
2019-01-25T00:10:40.674Z,11.50
2019-01-25T00:13:09.708Z,11.40
2019-01-25T00:15:38.963Z,11.40
2019-01-25T00:18:08.711Z,11.40
2019-01-25T00:20:38.088Z,11.40
2019-01-25T00:23:07.281Z,11.40
2019-01-25T00:25:37.467Z,11.40
2019-01-25T00:28:06.402Z,11.40
2019-01-25T00:30:35.483Z,11.30
2019-01-25T00:33:04.677Z,11.30
2019-01-25T00:35:33.793Z,11.40
2019-01-25T00:38:02.957Z,11.30
2019-01-25T00:40:31.985Z,11.40
2019-01-25T00:43:00.769Z,11.40
2019-01-25T00:45:29.401Z,11.30
2019-01-25T00:47:58.808Z,11.20
2019-01-25T00:50:27.474Z,11.20
2019-01-25T00:52:56.682Z,11.10
2019-01-25T00:55:25.818Z,11.30
2019-01-25T00:57:55.254Z,11.00
2019-01-25T01:00:26.752Z,10.90
2019-01-25T01:02:55.987Z,10.90
2019-01-25T01:05:26.129Z,10.70
2019-01-25T01:07:55.610Z,10.60
2019-01-25T01:10:24.810Z,10.50
2019-01-25T01:12:54.110Z,10.30
2019-01-25T01:15:23.056Z,10.20
2019-01-25T01:17:52.496Z,10.10
2019-01-25T01:20:22.166Z,9.90
2019-01-25T01:22:51.737Z,9.70
2019-01-25T01:25:21.001Z,9.70
2019-01-25T01:27:50.658Z,9.60
2019-01-25T01:30:23.438Z,9.40
2019-01-25T01:32:52.932Z,9.30
2019-01-25T01:35:21.968Z,9.20
2019-01-25T01:37:51.193Z,9.10
2019-01-25T01:40:22.386Z,9.00
2019-01-25T01:42:52.803Z,9.10
2019-01-25T01:45:21.970Z,9.00
2019-01-25T01:47:51.250Z,8.50
2019-01-25T01:50:20.336Z,8.40
2019-01-25T01:52:49.850Z,8.20
2019-01-25T01:55:20.401Z,8.10
2019-01-25T01:57:50.458Z,8.20
2019-01-25T02:00:22.322Z,7.90
2019-01-25T02:02:52.761Z,7.70
2019-01-25T02:05:21.979Z,7.50
2019-01-25T02:07:51.428Z,7.30
2019-01-25T02:10:29.018Z,7.10
2019-01-25T02:12:52.956Z,7.20
2019-01-25T02:15:22.659Z,7.00
2019-01-25T02:17:51.554Z,6.90
2019-01-25T02:20:24.911Z,6.80
2019-01-25T02:22:53.999Z,6.60
2019-01-25T02:25:23.056Z,6.60
2019-01-25T02:27:51.710Z,6.50
2019-01-25T02:30:26.168Z,6.50
2019-01-25T02:32:54.931Z,6.60
2019-01-25T02:35:23.675Z,6.30
2019-01-25T02:37:52.632Z,6.30
2019-01-25T02:40:23.291Z,6.20
2019-01-25T02:42:52.610Z,6.20
2019-01-25T02:45:21.920Z,6.30
2019-01-25T02:47:51.127Z,6.00
2019-01-25T02:50:20.696Z,6.00
2019-01-25T02:52:49.419Z,5.90
2019-01-25T02:55:18.799Z,6.10
2019-01-25T02:57:47.541Z,5.90
2019-01-25T03:00:18.011Z,5.80
2019-01-25T03:02:46.744Z,5.80
2019-01-25T03:05:16.787Z,5.70
2019-01-25T03:07:46.322Z,5.70
2019-01-25T03:10:17.509Z,5.70
2019-01-25T03:12:46.282Z,5.50
2019-01-25T03:15:18.026Z,5.50
2019-01-25T03:17:46.878Z,5.50
2019-01-25T03:20:16.745Z,5.60
2019-01-25T03:22:46.102Z,5.50
2019-01-25T03:25:20.869Z,5.60
2019-01-25T03:27:51.215Z,5.30
2019-01-25T03:30:24.625Z,5.30
2019-01-25T03:32:54.199Z,5.20
2019-01-25T03:35:25.295Z,5.20
2019-01-25T03:37:55.249Z,5.30
2019-01-25T03:40:26.407Z,5.10
2019-01-25T03:42:55.260Z,5.30
2019-01-25T03:45:24.601Z,4.90
2019-01-25T03:47:53.257Z,5.00
2019-01-25T03:50:25.093Z,5.10
2019-01-25T03:52:53.775Z,5.00
2019-01-25T03:55:22.586Z,5.00
2019-01-25T03:57:51.336Z,5.30
2019-01-25T04:00:23.205Z,5.10
2019-01-25T04:02:52.603Z,5.00
2019-01-25T04:05:21.784Z,5.10
2019-01-25T04:07:50.954Z,5.00
2019-01-25T04:10:25.249Z,4.80
2019-01-25T04:12:54.504Z,5.10
2019-01-25T04:15:34.740Z,5.00
2019-01-25T04:18:03.978Z,4.90
2019-01-25T04:20:32.843Z,4.80
2019-01-25T04:23:01.527Z,5.00
2019-01-25T04:25:30.301Z,5.10
2019-01-25T04:27:59.125Z,5.10
2019-01-25T04:30:29.690Z,5.10
2019-01-25T04:32:59.773Z,4.80
2019-01-25T04:35:29.258Z,5.10
2019-01-25T04:37:58.030Z,5.00
2019-01-25T04:40:26.801Z,5.10
2019-01-25T04:42:55.525Z,5.10
2019-01-25T04:45:24.267Z,5.00
2019-01-25T04:47:53.587Z,5.00
2019-01-25T04:50:26.987Z,5.30
2019-01-25T04:52:56.497Z,5.30
2019-01-25T04:55:29.997Z,5.20
2019-01-25T04:58:07.584Z,5.20
2019-01-25T05:00:36.973Z,5.30
2019-01-25T05:03:06.497Z,5.40
2019-01-25T05:05:35.482Z,5.20
2019-01-25T05:08:07.330Z,5.40
2019-01-25T05:10:37.035Z,5.40
2019-01-25T05:13:06.165Z,5.60
2019-01-25T05:15:34.890Z,5.60
2019-01-25T05:18:04.379Z,5.50
2019-01-25T05:20:33.137Z,5.60
2019-01-25T05:23:02.898Z,5.60
2019-01-25T05:25:31.622Z,5.60
2019-01-25T05:28:04.542Z,5.60
2019-01-25T05:30:33.284Z,5.90
2019-01-25T05:33:02.580Z,5.80
2019-01-25T05:35:36.728Z,5.90
2019-01-25T05:38:06.046Z,5.70
2019-01-25T05:40:35.771Z,6.00
2019-01-25T05:43:05.349Z,5.80
2019-01-25T05:45:34.761Z,6.00
2019-01-25T05:48:03.417Z,6.30
2019-01-25T05:50:32.107Z,6.10
2019-01-25T05:53:00.759Z,6.30
2019-01-25T05:55:29.415Z,6.30
2019-01-25T05:58:02.336Z,6.30
2019-01-25T06:00:38.471Z,6.20
2019-01-25T06:03:11.874Z,6.30
2019-01-25T06:05:41.255Z,6.30
2019-01-25T06:08:31.944Z,6.30
2019-01-25T06:11:02.935Z,6.30
2019-01-25T06:13:32.380Z,6.20
2019-01-25T06:16:02.574Z,6.30
2019-01-25T06:18:31.544Z,6.30
2019-01-25T06:21:00.809Z,6.10
2019-01-25T06:23:31.010Z,6.70
2019-01-25T06:26:00.488Z,6.70
2019-01-25T06:28:29.914Z,6.50
2019-01-25T06:30:59.121Z,6.50
2019-01-25T06:33:28.383Z,6.60
2019-01-25T06:35:58.047Z,6.20
2019-01-25T06:38:27.381Z,6.30
2019-01-25T06:40:56.035Z,6.30
2019-01-25T06:43:24.686Z,6.20
2019-01-25T06:45:53.361Z,6.30
2019-01-25T06:48:22.499Z,6.30
2019-01-25T06:50:51.792Z,6.20
2019-01-25T06:53:20.983Z,6.10
2019-01-25T06:55:50.167Z,6.40
2019-01-25T06:58:20.980Z,6.20
2019-01-25T07:01:01.138Z,6.20
2019-01-25T07:03:30.224Z,6.20
2019-01-25T07:05:59.440Z,6.20
2019-01-25T07:08:28.879Z,6.20
2019-01-25T07:10:58.025Z,6.10
2019-01-25T07:13:27.363Z,6.20
2019-01-25T07:15:56.908Z,6.30
2019-01-25T07:18:26.120Z,6.20
2019-01-25T07:20:55.562Z,6.00
2019-01-25T07:23:25.167Z,6.00
2019-01-25T07:25:53.851Z,5.90
2019-01-25T07:28:22.613Z,6.00
2019-01-25T07:30:51.289Z,6.10
2019-01-25T07:33:21.465Z,5.80
2019-01-25T07:35:50.830Z,5.60
2019-01-25T07:38:19.977Z,5.60
2019-01-25T07:40:50.231Z,5.70
2019-01-25T07:43:19.357Z,5.10
2019-01-25T07:45:48.652Z,5.10
2019-01-25T07:48:18.038Z,5.10
2019-01-25T07:50:47.255Z,4.80
2019-01-25T07:53:16.410Z,5.10
2019-01-25T07:55:45.426Z,4.80
2019-01-25T07:58:14.738Z,4.70
2019-01-25T08:00:44.306Z,4.80
2019-01-25T08:03:13.517Z,4.70
2019-01-25T08:05:42.229Z,4.70
2019-01-25T08:08:11.245Z,4.50
2019-01-25T08:10:40.400Z,4.50
2019-01-25T08:13:10.067Z,4.50
2019-01-25T08:15:39.157Z,4.40
2019-01-25T08:18:08.746Z,4.30
2019-01-25T08:20:38.093Z,4.10
2019-01-25T08:23:07.347Z,4.20
2019-01-25T08:25:37.540Z,3.80
2019-01-25T08:28:06.813Z,3.90
2019-01-25T08:30:35.968Z,3.80
2019-01-25T08:33:05.201Z,3.80
2019-01-25T08:35:34.330Z,3.70
2019-01-25T08:38:03.560Z,3.60
2019-01-25T08:40:32.912Z,3.70
2019-01-25T08:43:01.920Z,3.90
2019-01-25T08:45:31.297Z,3.60
2019-01-25T08:48:00.825Z,3.80
2019-01-25T08:50:29.676Z,3.60
2019-01-25T08:52:58.442Z,3.30
2019-01-25T08:55:27.179Z,3.40
2019-01-25T08:57:55.985Z,3.30
2019-01-25T09:00:27.140Z,3.40
2019-01-25T09:02:56.788Z,3.60
2019-01-25T09:05:26.066Z,3.40
2019-01-25T09:07:55.154Z,3.40
2019-01-25T09:10:25.673Z,3.40
2019-01-25T09:12:54.947Z,3.30
2019-01-25T09:15:30.149Z,3.50
2019-01-25T09:17:59.371Z,3.70
2019-01-25T09:20:28.856Z,3.50
2019-01-25T09:22:57.904Z,3.70
2019-01-25T09:25:27.415Z,3.90
2019-01-25T09:27:56.813Z,3.60
2019-01-25T09:30:27.573Z,3.90
2019-01-25T09:32:57.766Z,3.60
2019-01-25T09:35:26.778Z,4.00
2019-01-25T09:37:56.688Z,3.90
2019-01-25T09:40:26.273Z,3.80
2019-01-25T09:42:55.119Z,3.70
2019-01-25T09:45:24.669Z,3.60
2019-01-25T09:47:54.163Z,3.80
2019-01-25T09:50:23.529Z,3.90
2019-01-25T09:52:52.734Z,3.50
2019-01-25T09:55:24.652Z,3.50
2019-01-25T09:57:59.937Z,3.60
2019-01-25T10:00:31.881Z,3.50
2019-01-25T10:03:00.985Z,3.50
2019-01-25T10:05:30.118Z,3.40
2019-01-25T10:07:59.266Z,3.40
2019-01-25T10:10:28.343Z,3.30
2019-01-25T10:12:57.825Z,3.30
2019-01-25T10:15:31.434Z,3.30
2019-01-25T10:18:00.922Z,3.30
2019-01-25T10:20:30.195Z,3.30
2019-01-25T10:23:01.122Z,3.10
2019-01-25T10:25:30.433Z,3.00
2019-01-25T10:28:00.108Z,3.00
2019-01-25T10:30:29.646Z,3.30
2019-01-25T10:33:00.417Z,3.30
2019-01-25T10:35:31.527Z,3.10
2019-01-25T10:38:00.934Z,3.10
2019-01-25T10:40:30.170Z,3.10
2019-01-25T10:43:00.025Z,3.30
2019-01-25T10:45:34.510Z,3.10
2019-01-25T10:48:03.605Z,3.30
2019-01-25T10:50:32.838Z,3.30
2019-01-25T10:53:01.920Z,3.30
2019-01-25T10:55:31.244Z,3.60
2019-01-25T10:58:00.754Z,3.40
2019-01-25T11:00:30.067Z,3.80
2019-01-25T11:02:58.845Z,3.50
2019-01-25T11:05:29.235Z,3.60
2019-01-25T11:07:58.002Z,3.60
2019-01-25T11:10:27.224Z,3.70
2019-01-25T11:13:01.068Z,3.60
2019-01-25T11:15:27.698Z,3.80
2019-01-25T11:17:57.059Z,3.90
2019-01-25T11:20:26.715Z,3.90
2019-01-25T11:22:56.000Z,3.60
2019-01-25T11:25:28.597Z,3.70
2019-01-25T11:27:57.648Z,3.60
2019-01-25T11:30:27.009Z,3.80
2019-01-25T11:32:56.043Z,3.60
2019-01-25T11:35:25.439Z,3.60
2019-01-25T11:37:54.635Z,3.70
2019-01-25T11:40:41.402Z,4.10
2019-01-25T11:43:10.851Z,3.90
2019-01-25T11:45:40.952Z,3.70
2019-01-25T11:48:11.738Z,3.70
2019-01-25T11:50:40.372Z,3.80
2019-01-25T11:53:09.126Z,3.70
2019-01-25T11:55:37.981Z,3.70
2019-01-25T11:58:07.337Z,3.60
2019-01-25T12:00:38.054Z,3.60
2019-01-25T12:03:07.222Z,3.80
2019-01-25T12:05:36.714Z,3.90
2019-01-25T12:08:07.065Z,4.10
2019-01-25T12:10:36.967Z,3.80
2019-01-25T12:13:05.911Z,4.00
2019-01-25T12:15:34.865Z,3.60
2019-01-25T12:18:04.143Z,3.60
2019-01-25T12:20:33.796Z,3.80
2019-01-25T12:23:03.243Z,4.20
2019-01-25T12:25:32.463Z,4.10
2019-01-25T12:28:05.326Z,4.00
2019-01-25T12:30:37.669Z,4.10
2019-01-25T12:33:05.448Z,3.80
2019-01-25T12:35:36.674Z,4.20
2019-01-25T12:38:06.416Z,3.90
2019-01-25T12:40:41.708Z,4.10
2019-01-25T12:43:08.344Z,4.20
2019-01-25T12:45:37.689Z,4.40
2019-01-25T12:48:07.071Z,3.90
2019-01-25T12:50:48.855Z,3.90
2019-01-25T12:53:15.376Z,4.40
2019-01-25T12:55:44.467Z,4.40
2019-01-25T12:58:13.806Z,4.10
2019-01-25T13:00:43.108Z,4.10
2019-01-25T13:03:12.885Z,4.10
2019-01-25T13:05:43.291Z,4.10
2019-01-25T13:08:13.533Z,4.20
2019-01-25T13:10:42.302Z,4.10
2019-01-25T13:13:11.624Z,3.90
2019-01-25T13:15:41.290Z,3.90
2019-01-25T13:18:10.296Z,4.10
2019-01-25T13:20:39.701Z,3.80
2019-01-25T13:23:08.885Z,3.90
2019-01-25T13:25:38.121Z,3.90
2019-01-25T13:28:07.147Z,3.90
2019-01-25T13:30:37.409Z,3.90
2019-01-25T13:33:06.871Z,3.90
2019-01-25T13:35:36.380Z,4.10
2019-01-25T13:38:05.519Z,4.10
2019-01-25T13:40:34.847Z,3.60
2019-01-25T13:43:04.257Z,3.60
2019-01-25T13:45:33.370Z,3.60
2019-01-25T13:48:02.437Z,3.70
2019-01-25T13:50:31.969Z,3.60
2019-01-25T13:53:01.271Z,3.60
2019-01-25T13:55:30.565Z,3.70
2019-01-25T13:57:59.877Z,3.60
2019-01-25T14:00:34.253Z,3.60
2019-01-25T14:03:03.050Z,3.80
2019-01-25T14:05:31.696Z,3.90
2019-01-25T14:08:00.385Z,3.80
2019-01-25T14:10:31.538Z,3.90
2019-01-25T14:13:00.960Z,3.90
2019-01-25T14:15:30.304Z,3.90
2019-01-25T14:17:59.787Z,3.90
2019-01-25T14:20:30.587Z,4.10
2019-01-25T14:22:59.674Z,4.10
2019-01-25T14:25:29.104Z,4.10
2019-01-25T14:27:58.205Z,4.20
2019-01-25T14:30:37.695Z,4.20
2019-01-25T14:33:07.523Z,4.20
2019-01-25T14:35:37.239Z,4.30
2019-01-25T14:38:07.081Z,4.30
2019-01-25T14:40:36.591Z,4.30
2019-01-25T14:43:05.884Z,4.40
2019-01-25T14:45:35.476Z,4.40
2019-01-25T14:48:04.198Z,4.20
2019-01-25T14:50:32.911Z,4.20
2019-01-25T14:53:01.706Z,4.70
2019-01-25T14:55:31.213Z,4.10
2019-01-25T14:58:00.223Z,4.40
2019-01-25T15:00:29.577Z,4.20
2019-01-25T15:02:58.840Z,4.40
2019-01-25T15:05:28.298Z,4.40
2019-01-25T15:07:58.582Z,4.80
2019-01-25T15:10:27.979Z,4.40
2019-01-25T15:12:57.627Z,4.40
2019-01-25T15:15:28.461Z,4.40
2019-01-25T15:17:58.606Z,4.70
2019-01-25T15:20:28.620Z,4.50
2019-01-25T15:22:58.027Z,4.50
2019-01-25T15:25:27.468Z,4.50
2019-01-25T15:27:56.228Z,4.50
2019-01-25T15:30:26.666Z,4.40
2019-01-25T15:32:56.377Z,4.80
2019-01-25T15:35:25.199Z,4.50
2019-01-25T15:37:53.835Z,4.60
2019-01-25T15:40:24.200Z,4.80
2019-01-25T15:42:54.387Z,4.40
2019-01-25T15:45:23.857Z,4.60
2019-01-25T15:47:53.141Z,4.50
2019-01-25T15:50:27.575Z,4.70
2019-01-25T15:52:56.917Z,5.00
2019-01-25T15:55:26.692Z,4.60
2019-01-25T15:57:56.022Z,4.80
2019-01-25T16:00:26.830Z,4.80
2019-01-25T16:02:56.127Z,5.10
2019-01-25T16:05:25.559Z,4.90
2019-01-25T16:07:55.070Z,4.70
2019-01-25T16:10:24.458Z,5.00
2019-01-25T16:12:53.418Z,4.90
2019-01-25T16:15:24.121Z,4.90
2019-01-25T16:17:53.864Z,4.90
2019-01-25T16:20:22.775Z,5.10
2019-01-25T16:22:53.240Z,5.00
2019-01-25T16:25:26.813Z,5.30
2019-01-25T16:27:55.772Z,5.30
2019-01-25T16:30:36.362Z,5.20
2019-01-25T16:33:06.042Z,5.10
2019-01-25T16:35:35.259Z,5.30
2019-01-25T16:38:05.517Z,5.40
2019-01-25T16:40:34.716Z,5.20
2019-01-25T16:43:04.059Z,5.30
2019-01-25T16:45:38.609Z,5.60
2019-01-25T16:48:08.000Z,5.60
2019-01-25T16:50:37.500Z,5.60
2019-01-25T16:53:08.102Z,5.50
2019-01-25T16:55:37.442Z,5.70
2019-01-25T16:58:06.373Z,5.90
2019-01-25T17:00:40.313Z,5.90
2019-01-25T17:03:09.073Z,6.00
2019-01-25T17:05:38.364Z,5.90
2019-01-25T17:08:07.934Z,6.20
2019-01-25T17:10:36.983Z,6.10
2019-01-25T17:13:06.538Z,6.10
2019-01-25T17:15:35.639Z,6.30
2019-01-25T17:18:05.911Z,6.20
2019-01-25T17:20:35.955Z,6.20
2019-01-25T17:23:05.493Z,6.30
2019-01-25T17:25:34.760Z,6.30
2019-01-25T17:28:04.062Z,6.40
2019-01-25T17:30:34.993Z,6.40
2019-01-25T17:33:04.333Z,6.50
2019-01-25T17:35:33.424Z,6.60
2019-01-25T17:38:03.478Z,6.60
2019-01-25T17:40:38.277Z,6.80
2019-01-25T17:43:06.969Z,7.00
2019-01-25T17:45:35.705Z,7.10
2019-01-25T17:48:04.981Z,7.30
2019-01-25T17:50:33.921Z,7.40
2019-01-25T17:53:03.237Z,7.40
2019-01-25T17:55:32.565Z,7.60
2019-01-25T17:58:08.174Z,7.60
2019-01-25T18:00:40.304Z,7.90
2019-01-25T18:03:09.849Z,7.90
2019-01-25T18:05:38.903Z,8.00
2019-01-25T18:08:08.200Z,8.10
2019-01-25T18:10:37.438Z,8.20
2019-01-25T18:13:06.639Z,8.10
2019-01-25T18:15:35.906Z,8.50
2019-01-25T18:18:05.436Z,8.80
2019-01-25T18:20:34.703Z,9.00
2019-01-25T18:23:04.010Z,8.90
2019-01-25T18:25:44.834Z,9.30
2019-01-25T18:28:19.686Z,9.10
2019-01-25T18:30:51.556Z,9.10
2019-01-25T18:33:20.172Z,9.30
2019-01-25T18:35:48.934Z,9.40
2019-01-25T18:38:18.284Z,9.60
2019-01-25T18:40:47.410Z,9.70
2019-01-25T18:43:17.662Z,9.80
2019-01-25T18:45:48.187Z,9.90
2019-01-25T18:48:17.607Z,10.00
2019-01-25T18:50:46.807Z,10.00
2019-01-25T18:53:16.190Z,10.20
2019-01-25T18:55:45.405Z,10.20
2019-01-25T18:58:14.703Z,10.20
2019-01-25T19:00:43.887Z,10.10
2019-01-25T19:03:13.130Z,9.80
2019-01-25T19:05:42.457Z,9.70
2019-01-25T19:08:12.046Z,9.80
2019-01-25T19:10:40.703Z,9.90
2019-01-25T19:13:10.057Z,10.20
2019-01-25T19:15:38.808Z,10.40
2019-01-25T19:18:07.652Z,10.40
2019-01-25T19:20:36.957Z,10.50
2019-01-25T19:23:06.145Z,10.70
2019-01-25T19:25:35.785Z,10.40
2019-01-25T19:28:04.897Z,10.30
2019-01-25T19:30:39.473Z,10.20
2019-01-25T19:33:08.748Z,10.10
2019-01-25T19:35:38.325Z,10.30
2019-01-25T19:38:08.519Z,10.30
2019-01-25T19:40:37.914Z,10.30
2019-01-25T19:43:08.789Z,10.30
2019-01-25T19:45:38.034Z,10.40
2019-01-25T19:48:07.538Z,10.40
2019-01-25T19:50:36.701Z,10.50
2019-01-25T19:53:06.254Z,10.40
2019-01-25T19:55:35.111Z,10.30
2019-01-25T19:58:06.843Z,10.10
2019-01-25T20:00:43.826Z,10.20
2019-01-25T20:03:12.608Z,10.30
2019-01-25T20:05:42.008Z,10.40
2019-01-25T20:08:11.383Z,10.00
2019-01-25T20:10:40.622Z,10.10
2019-01-25T20:13:11.011Z,10.10
2019-01-25T20:15:40.256Z,10.20
2019-01-25T20:18:09.488Z,10.40
2019-01-25T20:20:39.840Z,10.50
2019-01-25T20:23:09.114Z,10.60
2019-01-25T20:25:38.178Z,10.50
2019-01-25T20:28:08.759Z,10.70
2019-01-25T20:30:38.034Z,10.70
2019-01-25T20:33:07.379Z,10.90
2019-01-25T20:35:38.358Z,10.90
2019-01-25T20:38:07.582Z,11.20
2019-01-25T20:40:36.857Z,11.50
2019-01-25T20:43:05.692Z,11.60
2019-01-25T20:45:39.416Z,11.80
2019-01-25T20:48:08.385Z,11.70
2019-01-25T20:50:37.849Z,11.60
2019-01-25T20:53:08.813Z,11.30
2019-01-25T20:55:38.132Z,11.30
2019-01-25T20:58:07.704Z,11.40
2019-01-25T21:00:38.313Z,11.30
2019-01-25T21:03:08.685Z,11.00
2019-01-25T21:05:37.816Z,10.80
2019-01-25T21:08:07.288Z,10.40
2019-01-25T21:10:36.835Z,10.20
2019-01-25T21:13:07.994Z,10.20
2019-01-25T21:15:37.150Z,10.20
2019-01-25T21:18:06.657Z,10.20
2019-01-25T21:20:41.169Z,10.20
2019-01-25T21:23:10.309Z,10.20
2019-01-25T21:25:39.819Z,10.20
2019-01-25T21:28:09.405Z,10.10
2019-01-25T21:30:38.439Z,10.00
2019-01-25T21:33:08.326Z,9.90
2019-01-25T21:35:37.705Z,10.00
2019-01-25T21:38:07.535Z,10.10
2019-01-25T21:40:36.616Z,10.60
2019-01-25T21:43:06.445Z,10.20
2019-01-25T21:45:42.699Z,10.30
2019-01-25T21:48:09.139Z,10.20
2019-01-25T21:50:41.274Z,10.20
2019-01-25T21:53:10.573Z,10.20
2019-01-25T21:55:39.796Z,10.30
2019-01-25T21:58:08.953Z,10.30
2019-01-25T22:00:38.210Z,10.30
2019-01-25T22:03:07.607Z,10.40
2019-01-25T22:05:37.778Z,10.40
2019-01-25T22:08:07.188Z,10.50
2019-01-25T22:10:41.381Z,10.50
2019-01-25T22:13:10.263Z,10.50
2019-01-25T22:15:39.133Z,10.50
2019-01-25T22:18:08.424Z,10.60
2019-01-25T22:20:37.954Z,10.70
2019-01-25T22:23:06.994Z,10.60
2019-01-25T22:25:37.309Z,10.50
2019-01-25T22:28:06.526Z,10.60
2019-01-25T22:30:35.806Z,10.60
2019-01-25T22:33:04.912Z,10.60
2019-01-25T22:35:34.391Z,10.60
2019-01-25T22:38:03.596Z,10.80
2019-01-25T22:40:34.282Z,10.90
2019-01-25T22:43:03.326Z,10.90
2019-01-25T22:45:32.519Z,10.60
2019-01-25T22:48:01.606Z,10.40
2019-01-25T22:50:32.211Z,10.40
2019-01-25T22:53:02.040Z,10.30
2019-01-25T22:55:30.776Z,10.30
2019-01-25T22:58:00.076Z,10.30
2019-01-25T23:00:45.573Z,10.20
2019-01-25T23:03:15.432Z,10.00
2019-01-25T23:05:47.455Z,9.80
2019-01-25T23:08:16.742Z,9.80
2019-01-25T23:10:46.379Z,9.80
2019-01-25T23:13:15.555Z,9.70
2019-01-25T23:15:45.614Z,9.50
2019-01-25T23:18:14.717Z,9.70
2019-01-25T23:20:44.085Z,9.50
2019-01-25T23:23:13.110Z,9.60
2019-01-25T23:25:42.300Z,9.60
2019-01-25T23:28:11.422Z,9.60
2019-01-25T23:30:40.490Z,9.50
2019-01-25T23:33:10.597Z,9.70
2019-01-25T23:35:39.258Z,9.50
2019-01-25T23:38:08.010Z,9.50
2019-01-25T23:40:36.743Z,9.60
2019-01-25T23:43:05.503Z,9.60
2019-01-25T23:45:34.113Z,9.50
2019-01-25T23:48:03.134Z,9.60
2019-01-25T23:50:33.332Z,9.50
2019-01-25T23:53:02.665Z,9.40
2019-01-25T23:55:32.012Z,9.40
2019-01-25T23:58:01.529Z,9.40
